Time;durP1;ratioP1;P1;durP2;ratioP2;P2;SDS_P1;SDS_P2;PMS_P1;PMS_P2;Temp;Humidity;BMP_temperature;BMP_pressure;BME280_temperature;BME280_humidity;BME280_pressure;Samples;Min_cycle;Max_cycle;Signal;HPM_P1;HPM_P2
2024/04/19 00:00:28;;;;;;;3.10;1.80;;;;;;;8.01;80.83;100620.88;5294431;26;20239;-86
2024/04/19 00:02:58;;;;;;;3.40;1.60;;;;;;;8.03;80.44;100623.44;5277836;26;20233;-85
2024/04/19 00:05:23;;;;;;;3.50;1.67;;;;;;;8.01;80.23;100614.72;5275215;26;20375;-87
2024/04/19 00:07:54;;;;;;;6.97;2.20;;;;;;;8.00;80.03;100618.31;5282095;26;20394;-86
2024/04/19 00:10:20;;;;;;;4.27;1.90;;;;;;;7.99;80.03;100605.97;5250094;26;20299;-86
2024/04/19 00:12:53;;;;;;;2.87;1.73;;;;;;;7.96;79.91;100601.69;5282322;26;20244;-85
2024/04/19 00:15:18;;;;;;;4.63;1.50;;;;;;;7.95;79.06;100599.97;5265971;26;20235;-85
2024/04/19 00:17:50;;;;;;;5.93;2.43;;;;;;;7.93;79.19;100595.69;5269525;26;20247;-86
2024/04/19 00:20:17;;;;;;;5.30;1.90;;;;;;;7.90;78.82;100596.69;5272260;26;20243;-85
2024/04/19 00:22:47;;;;;;;3.10;2.00;;;;;;;7.89;79.04;100587.03;5262358;26;20286;-86
2024/04/19 00:25:15;;;;;;;2.33;1.50;;;;;;;7.89;78.71;100583.53;5269909;26;20243;-87
2024/04/19 00:27:46;;;;;;;4.60;2.30;;;;;;;7.87;78.48;100580.97;5302486;26;20345;-86
2024/04/19 00:30:19;;;;;;;4.03;1.73;;;;;;;7.88;78.31;100565.94;5289534;26;20251;-86
2024/04/19 00:32:49;;;;;;;3.23;1.50;;;;;;;7.87;78.79;100567.72;5268137;27;20235;-86
2024/04/19 00:35:15;;;;;;;4.17;1.50;;;;;;;7.87;78.33;100566.88;5266593;26;20667;-85
2024/04/19 00:37:45;;;;;;;3.87;1.50;;;;;;;7.89;78.16;100568.47;5259015;26;20239;-86
2024/04/19 00:40:14;;;;;;;3.20;1.30;;;;;;;7.87;77.99;100554.47;5278158;26;20296;-86
2024/04/19 00:42:44;;;;;;;6.63;1.47;;;;;;;7.82;78.03;100551.19;5257483;27;20765;-85
2024/04/19 00:45:32;;;;;;;6.13;1.50;;;;;;;7.85;77.78;100550.19;5271283;26;20243;-86
2024/04/19 00:48:05;;;;;;;6.10;1.80;;;;;;;7.85;77.29;100539.56;5273129;26;20254;-86
2024/04/19 00:50:35;;;;;;;4.97;1.50;;;;;;;7.83;77.50;100536.16;5275676;26;20245;-86
2024/04/19 00:53:13;;;;;;;3.93;1.57;;;;;;;7.81;76.86;100533.56;5321480;26;20322;-85
2024/04/19 00:55:46;;;;;;;3.77;1.50;;;;;;;7.86;77.24;100536.00;5275320;26;20240;-87
2024/04/19 00:58:15;;;;;;;4.67;1.33;;;;;;;7.82;77.00;100529.13;5265614;26;20277;-86
2024/04/19 01:00:45;;;;;;;3.10;1.23;;;;;;;7.84;77.15;100524.59;5257366;26;21012;-86
2024/04/19 01:03:16;;;;;;;3.07;1.60;;;;;;;7.85;76.78;100518.38;5275365;26;20235;-86
2024/04/19 01:05:47;;;;;;;2.57;1.47;;;;;;;7.85;77.31;100516.56;5261942;26;20241;-86
2024/04/19 01:08:20;;;;;;;3.37;1.30;;;;;;;7.84;77.46;100506.91;5259742;27;20244;-85
2024/04/19 01:10:52;;;;;;;5.17;1.53;;;;;;;7.80;77.80;100501.84;5262476;26;20628;-86
2024/04/19 01:13:23;;;;;;;4.60;1.50;;;;;;;7.79;77.61;100498.34;5265885;26;20275;-86
2024/04/19 01:15:52;;;;;;;3.87;1.87;;;;;;;7.76;77.96;100490.53;5265199;27;20339;-86
2024/04/19 01:18:22;;;;;;;6.53;1.70;;;;;;;7.74;78.41;100480.94;5265403;26;20236;-86
2024/04/19 01:20:51;;;;;;;5.63;1.93;;;;;;;7.75;78.26;100478.22;5255758;26;20356;-85
2024/04/19 01:23:23;;;;;;;5.37;1.73;;;;;;;7.75;78.63;100474.72;5276421;26;20304;-85
2024/04/19 01:25:49;;;;;;;3.73;1.70;;;;;;;7.75;78.60;100467.63;5259018;26;20236;-85
2024/04/19 01:31:26;;;;;;;4.67;2.17;;;;;;;7.74;79.32;100446.50;5271060;26;20259;-86
2024/04/19 01:33:56;;;;;;;3.57;1.90;;;;;;;7.70;79.41;100437.88;5267097;26;20244;-85
2024/04/19 01:36:29;;;;;;;3.90;2.10;;;;;;;7.68;79.69;100423.84;5264641;26;20243;-85
2024/04/19 01:38:56;;;;;;;6.57;2.40;;;;;;;7.68;79.68;100428.28;5285624;26;20342;-86
2024/04/19 01:41:27;;;;;;;3.20;1.80;;;;;;;7.71;79.22;100425.44;5265799;26;20239;-85
2024/04/19 01:43:58;;;;;;;3.93;1.90;;;;;;;7.68;79.60;100423.00;5300060;26;20740;-86
2024/04/19 01:46:32;;;;;;;5.37;2.20;;;;;;;7.66;80.02;100423.94;5278125;26;20242;-86
2024/04/19 01:48:58;;;;;;;5.67;2.40;;;;;;;7.62;79.92;100414.44;5270693;26;20289;-85
2024/04/19 01:51:32;;;;;;;7.83;3.40;;;;;;;7.62;80.42;100405.63;5265981;26;20238;-86
2024/04/19 01:54:00;;;;;;;4.60;2.83;;;;;;;7.63;80.37;100402.03;5267342;26;20238;-85
2024/04/19 01:56:33;;;;;;;5.53;3.20;;;;;;;7.60;79.88;100400.41;5257250;26;20240;-85
2024/04/19 01:59:06;;;;;;;3.67;2.70;;;;;;;7.63;79.74;100397.59;5270364;26;20254;-86
2024/04/19 02:01:42;;;;;;;7.07;2.97;;;;;;;7.60;79.78;100400.41;5259763;26;20293;-85
2024/04/19 02:04:10;;;;;;;7.53;3.27;;;;;;;7.57;79.62;100391.75;5294851;26;20239;-86
2024/04/19 02:06:44;;;;;;;5.33;3.50;;;;;;;7.55;78.97;100396.28;5269230;26;20284;-85
2024/04/19 02:09:10;;;;;;;5.00;3.30;;;;;;;7.54;79.39;100387.47;5278800;26;20286;-86
2024/04/19 02:11:38;;;;;;;5.23;3.00;;;;;;;7.52;79.23;100381.44;5260762;27;20345;-85
2024/04/19 02:14:13;;;;;;;5.03;3.30;;;;;;;7.49;78.54;100376.31;5270997;26;20238;-85
2024/04/19 02:16:38;;;;;;;4.90;2.70;;;;;;;7.46;78.86;100381.75;5270989;26;20256;-86
2024/04/19 02:19:07;;;;;;;3.30;2.57;;;;;;;7.45;78.14;100365.94;5268465;26;20580;-86
2024/04/19 02:21:35;;;;;;;4.87;3.13;;;;;;;7.40;78.21;100358.25;5250950;26;20237;-86
2024/04/19 02:24:16;;;;;;;4.53;2.13;;;;;;;7.37;79.02;100357.56;5274915;26;20900;-87
2024/04/19 02:26:42;;;;;;;4.53;2.37;;;;;;;7.39;80.80;100353.88;5258165;26;20243;-85
2024/04/19 02:31:57;;;;;;;4.83;2.10;;;;;;;7.30;80.39;100339.38;5273991;26;20285;-85
2024/04/19 02:34:25;;;;;;;4.23;2.37;;;;;;;7.29;80.65;100331.50;5254134;26;20275;-85
2024/04/19 02:36:53;;;;;;;2.50;2.00;;;;;;;7.20;80.82;100324.91;5275741;26;20243;-85
2024/04/19 02:39:22;;;;;;;2.80;1.90;;;;;;;7.14;81.56;100314.66;5263015;26;20255;-85
2024/04/19 02:41:50;;;;;;;2.63;2.03;;;;;;;7.11;82.26;100308.66;5266618;26;20331;-86
2024/04/19 02:44:21;;;;;;;3.67;2.50;;;;;;;7.06;81.18;100294.81;5271217;26;20277;-85
2024/04/19 02:46:50;;;;;;;4.50;2.10;;;;;;;6.97;82.07;100299.69;5263934;26;20239;-86
2024/04/19 02:49:18;;;;;;;3.17;2.83;;;;;;;6.91;82.55;100289.41;5268054;26;20255;-85
2024/04/19 02:51:47;;;;;;;4.27;2.50;;;;;;;6.86;83.35;100291.44;5264494;26;20239;-85
2024/04/19 02:54:15;;;;;;;7.17;3.20;;;;;;;6.82;84.12;100278.44;5272868;26;20304;-85
2024/04/19 02:56:43;;;;;;;3.83;2.80;;;;;;;6.77;85.52;100276.06;5271932;26;20238;-86
2024/04/19 02:59:11;;;;;;;4.50;3.37;;;;;;;6.79;86.87;100278.63;5261879;26;20255;-85
2024/04/19 03:01:43;;;;;;;4.20;3.00;;;;;;;6.76;87.33;100270.84;5263531;26;20262;-85
2024/04/19 03:04:08;;;;;;;8.37;4.03;;;;;;;6.74;88.25;100259.50;5265356;26;20365;-86
2024/04/19 03:06:36;;;;;;;3.93;2.90;;;;;;;6.70;88.81;100260.59;5262486;26;20251;-86
2024/04/19 03:09:05;;;;;;;6.17;3.53;;;;;;;6.68;90.01;100251.88;5266391;26;20343;-86
2024/04/19 03:11:33;;;;;;;7.07;4.37;;;;;;;6.67;90.68;100245.72;5263133;26;20248;-86
2024/04/19 03:14:02;;;;;;;7.47;4.70;;;;;;;6.63;91.03;100241.53;5263816;26;20236;-85
2024/04/19 03:16:30;;;;;;;5.80;5.00;;;;;;;6.63;92.34;100230.94;5267719;26;20235;-86
2024/04/19 03:19:01;;;;;;;5.53;4.97;;;;;;;6.58;92.87;100222.44;5262471;26;20263;-86
2024/04/19 03:21:29;;;;;;;5.77;5.00;;;;;;;6.58;93.71;100222.44;5266135;26;20231;-87
2024/04/19 03:23:58;;;;;;;8.50;5.50;;;;;;;6.57;93.45;100210.13;5252221;26;20287;-87
2024/04/19 03:26:27;;;;;;;7.00;5.63;;;;;;;6.54;92.96;100199.72;5265510;26;20238;-87
2024/04/19 03:28:55;;;;;;;7.17;4.87;;;;;;;6.46;92.40;100207.19;5273398;26;20275;-86
2024/04/19 03:31:23;;;;;;;6.43;5.33;;;;;;;6.40;93.26;100203.09;5266420;26;20244;-86
2024/04/19 03:33:52;;;;;;;6.57;4.47;;;;;;;6.42;93.48;100195.09;5272920;26;23030;-86
2024/04/19 03:36:22;;;;;;;6.20;4.67;;;;;;;6.30;92.68;100188.63;5266479;26;20232;-87
2024/04/19 03:38:51;;;;;;;4.90;4.40;;;;;;;6.21;92.80;100175.91;5271962;26;20337;-86
2024/04/19 03:41:19;;;;;;;5.90;4.53;;;;;;;6.18;94.17;100173.44;5267814;26;20239;-86
2024/04/19 03:45:40;;;;;;;4.77;4.30;;;;;;;6.17;95.05;100163.78;5270923;26;20234;-86
2024/04/19 03:46:39;;;;;;;6.33;4.63;;;;;;;6.14;95.55;100146.28;5249556;26;20332;-86
2024/04/19 03:49:08;;;;;;;6.20;4.77;;;;;;;6.14;95.56;100156.88;5258867;26;20763;-87
2024/04/19 03:51:39;;;;;;;5.23;4.47;;;;;;;6.07;96.56;100134.34;5278490;26;20735;-86
2024/04/19 03:54:07;;;;;;;6.60;4.97;;;;;;;6.10;96.88;100131.50;5255159;26;20237;-86
2024/04/19 03:56:35;;;;;;;3.93;3.63;;;;;;;6.03;95.93;100116.09;5259138;26;20239;-85
2024/04/19 03:59:03;;;;;;;4.37;3.97;;;;;;;5.99;96.09;100111.88;5272174;26;20306;-85
2024/04/19 04:01:32;;;;;;;4.63;3.63;;;;;;;5.93;97.08;100102.47;5275504;26;20247;-86
2024/04/19 04:04:00;;;;;;;6.57;4.10;;;;;;;5.90;97.40;100100.88;5259209;26;20235;-86
2024/04/19 04:06:29;;;;;;;4.23;3.80;;;;;;;5.85;96.66;100091.44;5273523;26;20284;-86
2024/04/19 04:09:00;;;;;;;3.97;3.60;;;;;;;5.80;97.55;100085.53;5257598;26;20239;-85
2024/04/19 04:11:28;;;;;;;5.13;4.10;;;;;;;5.78;98.65;100079.47;5266757;26;20289;-86
2024/04/19 04:13:56;;;;;;;4.27;3.87;;;;;;;5.70;98.51;100066.69;5266497;26;20294;-86
2024/04/19 04:16:24;;;;;;;4.03;3.40;;;;;;;5.72;98.75;100056.03;5255701;26;20278;-87
2024/04/19 04:18:53;;;;;;;4.60;3.37;;;;;;;5.69;99.66;100050.91;5278494;26;20254;-86
2024/04/19 04:21:21;;;;;;;4.07;3.60;;;;;;;5.66;99.14;100048.44;5268213;26;20301;-87
2024/04/19 04:23:50;;;;;;;4.47;3.50;;;;;;;5.63;100.00;100044.16;5257914;26;20291;-86
2024/04/19 04:26:20;;;;;;;3.80;3.27;;;;;;;5.58;99.49;100033.81;5255411;26;20240;-86
2024/04/19 04:28:49;;;;;;;4.10;2.77;;;;;;;5.57;100.00;100029.47;5272030;26;20273;-86
2024/04/19 04:31:17;;;;;;;3.83;3.47;;;;;;;5.52;100.00;100025.38;5268250;26;20244;-87
2024/04/19 04:33:45;;;;;;;4.03;2.97;;;;;;;5.50;100.00;100028.13;5259368;26;20568;-85
2024/04/19 04:36:14;;;;;;;3.00;2.70;;;;;;;5.47;100.00;100017.69;5261153;26;20239;-86
2024/04/19 04:38:42;;;;;;;3.10;2.30;;;;;;;5.47;100.00;100028.25;5261867;26;20290;-86
2024/04/19 04:41:10;;;;;;;3.03;2.30;;;;;;;5.42;100.00;100017.06;5261140;26;20279;-86
2024/04/19 04:43:42;;;;;;;2.97;2.07;;;;;;;5.39;100.00;100014.59;5270673;26;20282;-86
2024/04/19 04:46:10;;;;;;;3.07;2.50;;;;;;;5.36;100.00;100009.50;5254090;26;20349;-87
2024/04/19 04:48:39;;;;;;;3.20;2.43;;;;;;;5.38;100.00;100007.59;5268891;26;20235;-86
2024/04/19 04:51:07;;;;;;;2.47;1.90;;;;;;;5.36;100.00;100003.38;5267548;26;20275;-86
2024/04/19 04:53:35;;;;;;;2.37;2.17;;;;;;;5.35;100.00;99993.72;5269519;26;20235;-85
2024/04/19 04:56:03;;;;;;;3.00;2.40;;;;;;;5.32;100.00;99984.19;5270919;26;20591;-86
2024/04/19 04:58:32;;;;;;;2.80;2.00;;;;;;;5.35;100.00;99978.75;5282113;26;20294;-86
2024/04/19 05:01:03;;;;;;;2.97;2.67;;;;;;;5.38;100.00;99969.78;5262696;26;20967;-86
2024/04/19 05:03:31;;;;;;;3.60;2.30;;;;;;;5.39;100.00;99976.78;5262325;26;20235;-86
2024/04/19 05:05:59;;;;;;;2.80;2.50;;;;;;;5.42;100.00;99966.06;5269605;26;20240;-86
2024/04/19 05:08:27;;;;;;;2.57;2.27;;;;;;;5.40;100.00;99963.50;5261820;26;20294;-85
2024/04/19 05:10:56;;;;;;;3.00;2.37;;;;;;;5.39;100.00;99968.84;5262512;26;20232;-87
2024/04/19 05:13:26;;;;;;;3.17;2.70;;;;;;;5.35;100.00;99957.63;5270037;26;20275;-85
2024/04/19 05:15:56;;;;;;;4.00;2.40;;;;;;;5.37;100.00;99952.25;5279019;26;20270;-87
2024/04/19 05:18:27;;;;;;;2.73;2.53;;;;;;;5.35;100.00;99954.13;5283215;26;20239;-87
2024/04/19 05:20:56;;;;;;;2.77;2.37;;;;;;;5.33;100.00;99941.00;5271296;26;20389;-87
2024/04/19 05:23:24;;;;;;;2.47;2.20;;;;;;;5.29;100.00;99934.16;5269626;26;20286;-86
2024/04/19 05:25:53;;;;;;;2.30;2.10;;;;;;;5.31;100.00;99920.88;5273481;26;20239;-87
2024/04/19 05:28:21;;;;;;;2.43;2.07;;;;;;;5.33;100.00;99908.47;5289095;26;20322;-87
2024/04/19 05:30:51;;;;;;;2.07;1.87;;;;;;;5.28;100.00;99906.06;5275586;26;20744;-87
2024/04/19 05:33:23;;;;;;;2.80;2.50;;;;;;;5.30;100.00;99898.91;5284597;26;20239;-87
2024/04/19 05:35:54;;;;;;;4.20;3.20;;;;;;;5.37;100.00;99897.66;5253446;26;20243;-87
2024/04/19 05:38:23;;;;;;;2.27;2.07;;;;;;;5.36;100.00;99889.81;5268490;27;20685;-87
2024/04/19 05:40:51;;;;;;;2.23;2.03;;;;;;;5.33;100.00;99893.47;5269239;27;20240;-86
2024/04/19 05:43:19;;;;;;;2.93;1.97;;;;;;;5.32;100.00;99867.16;5268863;27;20703;-85
2024/04/19 05:45:47;;;;;;;3.97;2.10;;;;;;;5.34;100.00;99879.34;5269310;27;20336;-86
2024/04/19 05:48:16;;;;;;;2.27;1.90;;;;;;;5.39;100.00;99871.16;5268969;27;20281;-85
2024/04/19 05:50:44;;;;;;;2.60;2.10;;;;;;;5.37;100.00;99865.13;5268970;27;20243;-86
2024/04/19 05:53:15;;;;;;;2.50;2.03;;;;;;;5.36;100.00;99851.06;5268799;27;20270;-85
2024/04/19 05:55:46;;;;;;;2.83;2.27;;;;;;;5.37;100.00;99852.78;5267246;27;20286;-85
2024/04/19 05:58:15;;;;;;;1.90;1.80;;;;;;;5.33;100.00;99845.09;5274866;27;20238;-85
2024/04/19 06:00:43;;;;;;;2.70;2.20;;;;;;;5.34;100.00;99839.75;5291771;26;20277;-86
2024/04/19 06:03:11;;;;;;;2.43;2.17;;;;;;;5.34;100.00;99847.66;5253966;27;20279;-86
2024/04/19 06:05:40;;;;;;;2.30;2.10;;;;;;;5.32;100.00;99849.53;5259829;27;20239;-86
2024/04/19 06:08:11;;;;;;;2.50;2.30;;;;;;;5.33;100.00;99840.66;5261077;26;20275;-86
2024/04/19 06:10:43;;;;;;;2.33;2.13;;;;;;;5.37;100.00;99836.09;5277454;26;20348;-85
2024/04/19 06:13:11;;;;;;;2.20;1.80;;;;;;;5.34;100.00;99823.91;5266687;26;20645;-86
2024/04/19 06:15:40;;;;;;;2.40;2.20;;;;;;;5.34;100.00;99829.19;5268693;26;20773;-85
2024/04/19 06:18:09;;;;;;;2.37;1.90;;;;;;;5.32;100.00;99838.97;5277013;26;20270;-85
2024/04/19 06:20:39;;;;;;;2.43;2.23;;;;;;;5.33;100.00;99824.84;5289296;26;20293;-84
2024/04/19 06:23:07;;;;;;;3.50;2.63;;;;;;;5.33;100.00;99823.97;5273508;26;20231;-85
2024/04/19 06:25:36;;;;;;;2.37;2.17;;;;;;;5.36;100.00;99816.75;5286893;26;20240;-86
2024/04/19 06:28:07;;;;;;;2.10;1.90;;;;;;;5.41;100.00;99825.25;5252626;27;20235;-86
2024/04/19 06:30:35;;;;;;;2.87;2.23;;;;;;;5.38;100.00;99788.44;5269004;26;20285;-85
2024/04/19 06:33:04;;;;;;;2.87;2.20;;;;;;;5.36;100.00;99805.34;5276063;26;20242;-85
2024/04/19 06:35:35;;;;;;;2.33;2.13;;;;;;;5.37;100.00;99799.13;5271385;26;20272;-85
2024/04/19 06:38:04;;;;;;;1.73;1.63;;;;;;;5.39;100.00;99786.66;5300765;26;20279;-86
2024/04/19 06:40:32;;;;;;;3.23;2.10;;;;;;;5.36;100.00;99779.78;5279056;26;20307;-84
2024/04/19 06:43:06;;;;;;;3.50;2.50;;;;;;;5.35;100.00;99785.16;5272068;26;20270;-83
2024/04/19 06:45:37;;;;;;;2.47;2.27;;;;;;;5.34;100.00;99783.44;5263122;27;20820;-84
2024/04/19 06:48:06;;;;;;;2.53;2.20;;;;;;;5.34;100.00;99781.66;5266291;27;20605;-85
2024/04/19 06:50:35;;;;;;;2.40;2.20;;;;;;;5.39;100.00;99781.38;5284718;26;20239;-83
2024/04/19 06:53:03;;;;;;;2.20;1.87;;;;;;;5.37;100.00;99770.94;5259820;26;20274;-84
2024/04/19 06:55:31;;;;;;;2.10;1.90;;;;;;;5.36;100.00;99776.28;5256972;27;20235;-84
2024/04/19 06:58:00;;;;;;;2.37;2.17;;;;;;;5.34;100.00;99767.59;5283078;26;20243;-84
2024/04/19 07:00:31;;;;;;;1.80;1.70;;;;;;;5.34;100.00;99768.44;5274103;26;20239;-84
2024/04/19 07:02:59;;;;;;;1.70;1.60;;;;;;;5.34;100.00;99768.44;5265990;27;20234;-85
2024/04/19 07:05:28;;;;;;;1.57;1.47;;;;;;;5.31;100.00;99760.69;5268668;26;20270;-86
2024/04/19 07:07:56;;;;;;;2.17;1.80;;;;;;;5.32;100.00;99767.69;5285769;26;20306;-85
2024/04/19 07:10:25;;;;;;;1.77;1.30;;;;;;;5.32;100.00;99764.19;5264001;27;20628;-85
2024/04/19 07:12:53;;;;;;;1.47;1.27;;;;;;;5.26;100.00;99764.53;5258761;26;20289;-85
2024/04/19 07:15:22;;;;;;;1.80;1.40;;;;;;;5.27;100.00;99759.16;5259923;27;20274;-86
2024/04/19 07:17:54;;;;;;;1.33;1.03;;;;;;;5.33;100.00;99761.47;5282081;26;20242;-83
2024/04/19 07:20:22;;;;;;;1.77;1.10;;;;;;;5.29;100.00;99773.13;5300860;26;20289;-82
2024/04/19 07:22:52;;;;;;;0.70;0.70;;;;;;;5.31;100.00;99757.19;5301336;27;20226;-82
2024/04/19 07:25:21;;;;;;;1.00;1.00;;;;;;;5.26;100.00;99761.88;5301226;26;20230;-83
2024/04/19 07:27:52;;;;;;;0.80;0.80;;;;;;;5.24;100.00;99746.13;5301265;27;20354;-82
2024/04/19 07:30:20;;;;;;;1.17;0.70;;;;;;;5.23;100.00;99747.06;5301362;26;20250;-83
2024/04/19 07:32:49;;;;;;;1.23;1.13;;;;;;;5.23;100.00;99754.97;5301881;27;20269;-83
2024/04/19 07:35:21;;;;;;;0.90;0.90;;;;;;;5.19;100.00;99751.69;5300805;27;20226;-82
2024/04/19 07:37:49;;;;;;;0.97;0.87;;;;;;;5.18;100.00;99749.97;5301251;26;20577;-82
2024/04/19 07:40:18;;;;;;;0.77;0.77;;;;;;;5.20;100.00;99734.03;5302055;26;20242;-82
2024/04/19 07:42:46;;;;;;;0.70;0.60;;;;;;;5.15;100.00;99738.72;5300613;26;20273;-82
2024/04/19 07:45:18;;;;;;;0.40;0.40;;;;;;;5.19;100.00;99733.19;5300566;27;20289;-83
2024/04/19 07:47:46;;;;;;;0.60;0.60;;;;;;;5.20;100.00;99740.16;5300857;27;20356;-82
2024/04/19 07:50:15;;;;;;;0.60;0.60;;;;;;;5.21;100.00;99730.44;5301449;27;20293;-82
2024/04/19 07:52:46;;;;;;;0.83;0.67;;;;;;;5.21;100.00;99719.88;5301216;27;20230;-83
2024/04/19 07:55:15;;;;;;;0.40;0.40;;;;;;;5.24;100.00;99722.38;5301585;26;20236;-83
2024/04/19 07:57:43;;;;;;;0.73;0.63;;;;;;;5.26;100.00;99712.56;5301186;26;20227;-83
2024/04/19 08:00:16;;;;;;;0.67;0.50;;;;;;;5.24;100.00;99712.66;5301075;26;20677;-82
2024/04/19 08:02:45;;;;;;;0.50;0.50;;;;;;;5.25;100.00;99710.88;5299519;27;20234;-82
2024/04/19 08:05:13;;;;;;;0.50;0.50;;;;;;;5.27;100.00;99713.44;5299130;27;20225;-82
2024/04/19 08:07:42;;;;;;;0.40;0.40;;;;;;;5.27;100.00;99703.72;5300495;26;20230;-82
2024/04/19 08:10:16;;;;;;;0.67;0.40;;;;;;;5.28;100.00;99710.69;5299455;26;20242;-83
2024/04/19 08:12:44;;;;;;;0.40;0.40;;;;;;;5.31;100.00;99702.63;5300175;27;20230;-83
2024/04/19 08:15:14;;;;;;;0.40;0.30;;;;;;;5.29;100.00;99701.84;5300300;27;20226;-83
2024/04/19 08:17:42;;;;;;;0.30;0.30;;;;;;;5.29;100.00;99706.28;5299512;27;20272;-82
2024/04/19 08:20:14;;;;;;;0.50;0.50;;;;;;;5.32;100.00;99693.75;5298805;27;20280;-82
2024/04/19 08:22:42;;;;;;;0.30;0.30;;;;;;;5.34;100.00;99688.38;5299685;27;20570;-82
2024/04/19 08:25:13;;;;;;;0.40;0.30;;;;;;;5.36;100.00;99697.94;5298849;26;20566;-82
2024/04/19 08:27:42;;;;;;;0.93;0.40;;;;;;;5.41;100.00;99692.38;5299300;27;20260;-82
2024/04/19 08:30:13;;;;;;;0.63;0.30;;;;;;;5.45;100.00;99683.34;5300514;27;20242;-83
2024/04/19 08:32:42;;;;;;;0.60;0.50;;;;;;;5.48;100.00;99675.25;5300719;27;20230;-83
2024/04/19 08:35:10;;;;;;;0.40;0.23;;;;;;;5.56;100.00;99679.13;5299580;27;20264;-82
2024/04/19 08:37:38;;;;;;;0.37;0.30;;;;;;;5.58;100.00;99681.69;5299539;26;20601;-82
2024/04/19 08:40:07;;;;;;;0.40;0.40;;;;;;;5.68;100.00;99671.44;5299096;27;20718;-82
2024/04/19 08:42:38;;;;;;;0.67;0.30;;;;;;;5.74;100.00;99677.19;5299893;27;20222;-84
2024/04/19 08:45:09;;;;;;;0.30;0.30;;;;;;;5.82;100.00;99668.81;5300705;26;20232;-83
2024/04/19 08:47:38;;;;;;;0.63;0.60;;;;;;;5.89;100.00;99665.78;5300138;27;20504;-83
2024/04/19 08:50:07;;;;;;;0.50;0.50;;;;;;;6.01;100.00;99658.03;5300139;27;20281;-83
2024/04/19 08:52:37;;;;;;;0.60;0.50;;;;;;;6.13;100.00;99647.56;5300996;26;20715;-84
2024/04/19 08:55:07;;;;;;;0.40;0.40;;;;;;;6.40;100.00;99652.13;5300009;27;20230;-84
2024/04/19 08:57:41;;;;;;;0.57;0.57;;;;;;;6.59;100.00;99655.31;5300182;27;20226;-84
2024/04/19 09:00:10;;;;;;;0.30;0.30;;;;;;;6.73;100.00;99655.28;5299838;27;20242;-84
2024/04/19 09:02:38;;;;;;;0.40;0.40;;;;;;;6.84;100.00;99658.09;5299190;27;20230;-85
2024/04/19 09:05:07;;;;;;;0.67;0.67;;;;;;;6.96;100.00;99656.47;5299311;27;20227;-86
2024/04/19 09:07:35;;;;;;;0.87;0.57;;;;;;;7.00;100.00;99650.00;5298569;27;20265;-83
2024/04/19 09:10:03;;;;;;;0.50;0.50;;;;;;;7.07;100.00;99643.38;5299558;26;20243;-85
2024/04/19 09:12:32;;;;;;;0.40;0.40;;;;;;;7.12;100.00;99643.94;5299832;27;20269;-84
2024/04/19 09:15:03;;;;;;;0.47;0.40;;;;;;;7.19;100.00;99650.53;5278117;27;20239;-83
2024/04/19 09:17:32;;;;;;;0.30;0.30;;;;;;;7.19;100.00;99642.56;5266370;27;20277;-84
2024/04/19 09:20:01;;;;;;;0.60;0.40;;;;;;;7.25;100.00;99638.69;5265881;27;20251;-84
2024/04/19 09:22:29;;;;;;;0.40;0.40;;;;;;;7.31;100.00;99633.00;5232912;27;20240;-84
2024/04/19 09:24:57;;;;;;;0.60;0.60;;;;;;;7.32;100.00;99629.41;5232055;27;20232;-84
2024/04/19 09:27:27;;;;;;;0.60;0.60;;;;;;;7.37;100.00;99631.72;5295636;27;20327;-84
2024/04/19 09:29:55;;;;;;;0.80;0.70;;;;;;;7.41;100.00;99618.19;5301170;27;20281;-85
2024/04/19 09:32:28;;;;;;;0.50;0.50;;;;;;;7.47;100.00;99624.88;5304648;26;20234;-85
2024/04/19 09:34:56;;;;;;;0.63;0.60;;;;;;;7.52;100.00;99623.63;5278916;26;20290;-86
2024/04/19 09:37:28;;;;;;;0.80;0.80;;;;;;;7.52;100.00;99620.97;5252830;27;20252;-84
2024/04/19 09:39:56;;;;;;;1.63;0.80;;;;;;;7.60;100.00;99610.69;5236398;27;20299;-84
2024/04/19 09:42:25;;;;;;;0.70;0.70;;;;;;;7.69;100.00;99609.25;5272020;27;20239;-86
2024/04/19 09:44:55;;;;;;;0.70;0.70;;;;;;;7.84;100.00;99610.84;5295027;27;20239;-85
2024/04/19 09:47:27;;;;;;;1.00;0.90;;;;;;;7.89;100.00;99605.19;5254241;27;20231;-86
2024/04/19 09:49:59;;;;;;;1.53;0.87;;;;;;;7.97;100.00;99609.03;5283700;27;20239;-84
2024/04/19 09:52:32;;;;;;;0.87;0.87;;;;;;;8.09;100.00;99594.06;5301314;26;20280;-84
2024/04/19 09:55:09;;;;;;;1.63;1.20;;;;;;;8.28;100.00;99589.16;5289633;26;20281;-86
2024/04/19 09:57:38;;;;;;;0.90;0.90;;;;;;;8.45;100.00;99588.00;5288805;26;20238;-86
2024/04/19 10:00:08;;;;;;;1.20;1.10;;;;;;;8.51;100.00;99576.94;5275016;26;20243;-85
2024/04/19 10:02:41;;;;;;;1.90;1.07;;;;;;;8.60;100.00;99576.28;5269820;27;20758;-85
2024/04/19 10:05:10;;;;;;;1.00;1.00;;;;;;;8.69;100.00;99577.44;5295119;26;20275;-85
2024/04/19 10:07:39;;;;;;;1.13;1.13;;;;;;;8.70;100.00;99587.94;5236017;27;20224;-86
2024/04/19 10:10:08;;;;;;;2.50;1.40;;;;;;;8.72;100.00;99579.03;5233664;27;20243;-80
2024/04/19 10:12:38;;;;;;;1.50;1.30;;;;;;;8.68;100.00;99592.50;5233634;27;20232;-81
2024/04/19 10:15:11;;;;;;;1.53;1.03;;;;;;;8.68;100.00;99586.34;5233015;27;20228;-81
2024/04/19 10:17:42;;;;;;;2.90;1.30;;;;;;;8.59;100.00;99582.56;5233541;27;20237;-80
2024/04/19 10:20:12;;;;;;;1.60;1.50;;;;;;;8.57;100.00;99579.19;5233304;27;20279;-81
2024/04/19 10:22:43;;;;;;;1.40;1.30;;;;;;;8.59;100.00;99582.56;5233496;27;20330;-82
2024/04/19 10:25:12;;;;;;;1.77;1.67;;;;;;;8.54;100.00;99570.59;5233625;27;20232;-82
2024/04/19 10:27:41;;;;;;;3.30;2.10;;;;;;;8.56;100.00;99566.00;5234570;27;20232;-82
2024/04/19 10:30:11;;;;;;;2.33;1.73;;;;;;;8.59;100.00;99560.50;5234259;27;20241;-82
2024/04/19 10:32:42;;;;;;;1.67;1.57;;;;;;;8.60;100.00;99567.47;5234602;27;20859;-82
2024/04/19 10:35:13;;;;;;;1.87;1.77;;;;;;;8.64;100.00;99553.03;5234456;27;20278;-82
2024/04/19 10:37:41;;;;;;;2.00;1.90;;;;;;;8.71;100.00;99543.66;5234452;27;20330;-83
2024/04/19 10:40:13;;;;;;;2.30;2.10;;;;;;;8.76;100.00;99548.63;5234536;27;20240;-83
2024/04/19 10:42:42;;;;;;;2.70;2.30;;;;;;;8.79;100.00;99540.44;5233718;27;20232;-83
2024/04/19 10:45:13;;;;;;;2.40;2.20;;;;;;;8.88;100.00;99543.28;5234283;27;20279;-84
2024/04/19 10:47:45;;;;;;;3.03;2.40;;;;;;;8.92;100.00;99539.44;5236707;27;20641;-84
2024/04/19 10:50:14;;;;;;;2.53;2.30;;;;;;;8.98;100.00;99531.00;5262594;27;20345;-84
2024/04/19 10:52:42;;;;;;;2.30;2.10;;;;;;;9.09;100.00;99524.03;5303195;27;20266;-84
2024/04/19 10:55:13;;;;;;;3.23;3.03;;;;;;;9.20;100.00;99521.41;5303625;27;20966;-85
2024/04/19 10:57:41;;;;;;;3.33;2.73;;;;;;;9.31;100.00;99506.38;5263638;26;20693;-85
2024/04/19 11:00:15;;;;;;;3.83;3.00;;;;;;;9.46;100.00;99512.31;5277994;27;20243;-85
2024/04/19 11:02:50;;;;;;;2.37;2.17;;;;;;;9.62;100.00;99496.03;5267053;26;20270;-85
2024/04/19 11:05:18;;;;;;;2.63;2.43;;;;;;;9.68;100.00;99498.19;5282107;26;20629;-85
2024/04/19 11:07:51;;;;;;;2.67;2.47;;;;;;;9.83;100.00;99498.84;5270329;26;20244;-85
2024/04/19 11:10:19;;;;;;;2.10;1.90;;;;;;;9.94;100.00;99499.69;5256695;26;20244;-84
2024/04/19 11:12:50;;;;;;;2.43;1.90;;;;;;;10.10;100.00;99489.50;5253203;26;20295;-83
2024/04/19 11:15:20;;;;;;;2.30;2.10;;;;;;;10.21;100.00;99475.38;5258102;26;20285;-85
2024/04/19 11:17:51;;;;;;;3.00;1.70;;;;;;;10.36;100.00;99471.50;5264384;26;20790;-85
2024/04/19 11:20:19;;;;;;;1.47;1.37;;;;;;;10.50;100.00;99459.72;5262149;26;20594;-82
2024/04/19 11:22:48;;;;;;;2.30;1.83;;;;;;;10.57;100.00;99462.72;5263703;26;20240;-84
2024/04/19 11:25:16;;;;;;;1.77;1.30;;;;;;;10.62;100.00;99460.50;5252694;26;20245;-85
2024/04/19 11:27:45;;;;;;;2.07;1.30;;;;;;;10.66;98.76;99454.81;5258292;26;20722;-86
2024/04/19 11:30:13;;;;;;;4.20;1.73;;;;;;;10.71;99.26;99441.97;5259725;26;20280;-85
2024/04/19 11:32:43;;;;;;;2.67;2.20;;;;;;;10.77;99.78;99440.59;5272816;26;20274;-85
2024/04/19 11:35:19;;;;;;;4.33;2.73;;;;;;;10.74;97.87;99436.41;5263217;26;20276;-86
2024/04/19 11:37:50;;;;;;;2.03;1.63;;;;;;;10.69;96.86;99443.91;5259443;26;20244;-84
2024/04/19 11:40:21;;;;;;;1.60;1.50;;;;;;;10.67;97.96;99448.53;5260114;26;20323;-84
2024/04/19 11:42:50;;;;;;;3.83;1.60;;;;;;;10.64;98.87;99454.09;5241848;26;20257;-83
2024/04/19 11:45:18;;;;;;;1.47;1.27;;;;;;;10.61;99.81;99457.00;5250831;26;20237;-84
2024/04/19 11:47:53;;;;;;;2.37;1.20;;;;;;;10.57;97.30;99457.41;5259693;26;20251;-83
2024/04/19 11:50:24;;;;;;;3.43;1.50;;;;;;;10.49;96.46;99452.69;5254081;26;20247;-83